sensor_id;sensor_type;location;lat;lon;timestamp;P1;durP1;ratioP1;P2;durP2;ratioP2
68250;SDS011;55066;51.560;4.642;2023-09-30T00:00:46;16.95;;;5.70;;
68250;SDS011;55066;51.560;4.642;2023-09-30T00:03:13;13.93;;;5.35;;
68250;SDS011;55066;51.560;4.642;2023-09-30T00:05:38;13.15;;;5.53;;
68250;SDS011;55066;51.560;4.642;2023-09-30T00:08:04;14.03;;;4.93;;
68250;SDS011;55066;51.560;4.642;2023-09-30T00:10:30;12.75;;;5.55;;
68250;SDS011;55066;51.560;4.642;2023-09-30T00:12:56;16.20;;;5.80;;
68250;SDS011;55066;51.560;4.642;2023-09-30T00:15:22;17.20;;;5.95;;
68250;SDS011;55066;51.560;4.642;2023-09-30T00:17:47;16.38;;;6.07;;
68250;SDS011;55066;51.560;4.642;2023-09-30T00:20:14;14.02;;;5.60;;
68250;SDS011;55066;51.560;4.642;2023-09-30T00:22:42;13.07;;;5.57;;
68250;SDS011;55066;51.560;4.642;2023-09-30T00:25:08;14.45;;;5.20;;
68250;SDS011;55066;51.560;4.642;2023-09-30T00:27:35;16.17;;;5.68;;
68250;SDS011;55066;51.560;4.642;2023-09-30T00:30:01;14.73;;;5.75;;
68250;SDS011;55066;51.560;4.642;2023-09-30T00:32:26;13.40;;;5.67;;
68250;SDS011;55066;51.560;4.642;2023-09-30T00:34:53;15.63;;;5.55;;
68250;SDS011;55066;51.560;4.642;2023-09-30T00:37:20;15.45;;;5.93;;
68250;SDS011;55066;51.560;4.642;2023-09-30T00:39:46;12.40;;;5.70;;
68250;SDS011;55066;51.560;4.642;2023-09-30T00:42:11;13.63;;;4.90;;
68250;SDS011;55066;51.560;4.642;2023-09-30T00:44:37;10.70;;;5.37;;
68250;SDS011;55066;51.560;4.642;2023-09-30T00:47:02;13.57;;;5.80;;
68250;SDS011;55066;51.560;4.642;2023-09-30T00:49:29;11.23;;;5.53;;
68250;SDS011;55066;51.560;4.642;2023-09-30T00:51:55;17.40;;;6.05;;
68250;SDS011;55066;51.560;4.642;2023-09-30T00:54:21;13.65;;;5.43;;
68250;SDS011;55066;51.560;4.642;2023-09-30T00:56:50;13.50;;;5.70;;
68250;SDS011;55066;51.560;4.642;2023-09-30T00:59:17;15.15;;;5.78;;
68250;SDS011;55066;51.560;4.642;2023-09-30T01:01:44;13.70;;;5.82;;
68250;SDS011;55066;51.560;4.642;2023-09-30T01:04:12;13.82;;;5.47;;
68250;SDS011;55066;51.560;4.642;2023-09-30T01:06:38;11.85;;;5.32;;
68250;SDS011;55066;51.560;4.642;2023-09-30T01:09:04;14.60;;;5.78;;
68250;SDS011;55066;51.560;4.642;2023-09-30T01:11:30;16.95;;;5.82;;
68250;SDS011;55066;51.560;4.642;2023-09-30T01:13:56;12.00;;;5.47;;
68250;SDS011;55066;51.560;4.642;2023-09-30T01:16:22;11.05;;;5.10;;
68250;SDS011;55066;51.560;4.642;2023-09-30T01:18:48;12.35;;;5.22;;
68250;SDS011;55066;51.560;4.642;2023-09-30T01:21:14;13.70;;;5.38;;
68250;SDS011;55066;51.560;4.642;2023-09-30T01:23:40;15.23;;;5.50;;
68250;SDS011;55066;51.560;4.642;2023-09-30T01:26:11;14.55;;;5.70;;
68250;SDS011;55066;51.560;4.642;2023-09-30T01:28:38;13.00;;;5.65;;
68250;SDS011;55066;51.560;4.642;2023-09-30T01:31:04;12.32;;;5.53;;
68250;SDS011;55066;51.560;4.642;2023-09-30T01:33:31;10.32;;;5.03;;
68250;SDS011;55066;51.560;4.642;2023-09-30T01:35:57;11.63;;;5.43;;
68250;SDS011;55066;51.560;4.642;2023-09-30T01:38:23;12.88;;;6.03;;
68250;SDS011;55066;51.560;4.642;2023-09-30T01:40:49;16.53;;;5.90;;
68250;SDS011;55066;51.560;4.642;2023-09-30T01:43:14;15.07;;;5.45;;
68250;SDS011;55066;51.560;4.642;2023-09-30T01:45:41;13.85;;;5.95;;
68250;SDS011;55066;51.560;4.642;2023-09-30T01:48:07;18.50;;;6.20;;
68250;SDS011;55066;51.560;4.642;2023-09-30T01:50:38;14.00;;;5.82;;
68250;SDS011;55066;51.560;4.642;2023-09-30T01:53:05;13.85;;;5.88;;
68250;SDS011;55066;51.560;4.642;2023-09-30T01:55:34;13.13;;;5.63;;
68250;SDS011;55066;51.560;4.642;2023-09-30T01:58:02;14.02;;;5.30;;
68250;SDS011;55066;51.560;4.642;2023-09-30T02:00:29;12.73;;;5.60;;
68250;SDS011;55066;51.560;4.642;2023-09-30T02:02:55;11.85;;;4.78;;
68250;SDS011;55066;51.560;4.642;2023-09-30T02:05:23;12.88;;;5.85;;
68250;SDS011;55066;51.560;4.642;2023-09-30T02:07:49;13.43;;;5.57;;
68250;SDS011;55066;51.560;4.642;2023-09-30T02:10:16;13.93;;;6.20;;
68250;SDS011;55066;51.560;4.642;2023-09-30T02:12:45;16.35;;;8.10;;
68250;SDS011;55066;51.560;4.642;2023-09-30T02:15:12;13.35;;;6.55;;
68250;SDS011;55066;51.560;4.642;2023-09-30T02:17:37;15.38;;;7.20;;
68250;SDS011;55066;51.560;4.642;2023-09-30T02:20:03;12.00;;;6.07;;
68250;SDS011;55066;51.560;4.642;2023-09-30T02:22:32;15.15;;;6.13;;
68250;SDS011;55066;51.560;4.642;2023-09-30T02:24:58;15.83;;;6.30;;
68250;SDS011;55066;51.560;4.642;2023-09-30T02:27:23;14.65;;;6.18;;
68250;SDS011;55066;51.560;4.642;2023-09-30T02:29:49;12.90;;;5.13;;
68250;SDS011;55066;51.560;4.642;2023-09-30T02:32:14;17.73;;;6.57;;
68250;SDS011;55066;51.560;4.642;2023-09-30T02:34:40;15.10;;;6.40;;
68250;SDS011;55066;51.560;4.642;2023-09-30T02:37:06;17.40;;;7.18;;
68250;SDS011;55066;51.560;4.642;2023-09-30T02:39:32;17.85;;;7.28;;
68250;SDS011;55066;51.560;4.642;2023-09-30T02:41:57;16.00;;;6.23;;
68250;SDS011;55066;51.560;4.642;2023-09-30T02:44:23;18.53;;;6.70;;
68250;SDS011;55066;51.560;4.642;2023-09-30T02:46:48;17.25;;;6.15;;
68250;SDS011;55066;51.560;4.642;2023-09-30T02:49:14;13.93;;;6.17;;
68250;SDS011;55066;51.560;4.642;2023-09-30T02:51:41;15.25;;;6.75;;
68250;SDS011;55066;51.560;4.642;2023-09-30T02:54:06;16.40;;;6.97;;
68250;SDS011;55066;51.560;4.642;2023-09-30T02:56:34;18.25;;;7.18;;
68250;SDS011;55066;51.560;4.642;2023-09-30T02:58:59;17.90;;;6.40;;
68250;SDS011;55066;51.560;4.642;2023-09-30T03:01:25;14.05;;;6.43;;
68250;SDS011;55066;51.560;4.642;2023-09-30T03:03:51;15.52;;;6.57;;
68250;SDS011;55066;51.560;4.642;2023-09-30T03:06:17;17.47;;;7.10;;
68250;SDS011;55066;51.560;4.642;2023-09-30T03:08:44;15.30;;;6.75;;
68250;SDS011;55066;51.560;4.642;2023-09-30T03:11:09;17.07;;;6.50;;
68250;SDS011;55066;51.560;4.642;2023-09-30T03:13:35;17.60;;;7.00;;
68250;SDS011;55066;51.560;4.642;2023-09-30T03:16:01;18.00;;;7.70;;
68250;SDS011;55066;51.560;4.642;2023-09-30T03:18:26;18.77;;;8.30;;
68250;SDS011;55066;51.560;4.642;2023-09-30T03:20:57;21.48;;;7.55;;
68250;SDS011;55066;51.560;4.642;2023-09-30T03:23:25;21.30;;;7.05;;
68250;SDS011;55066;51.560;4.642;2023-09-30T03:25:56;16.02;;;7.00;;
68250;SDS011;55066;51.560;4.642;2023-09-30T03:28:22;14.82;;;6.78;;
68250;SDS011;55066;51.560;4.642;2023-09-30T03:30:48;14.10;;;7.10;;
68250;SDS011;55066;51.560;4.642;2023-09-30T03:33:13;15.35;;;7.40;;
68250;SDS011;55066;51.560;4.642;2023-09-30T03:35:40;17.55;;;7.63;;
68250;SDS011;55066;51.560;4.642;2023-09-30T03:38:06;19.45;;;7.43;;
68250;SDS011;55066;51.560;4.642;2023-09-30T03:40:35;17.65;;;7.78;;
68250;SDS011;55066;51.560;4.642;2023-09-30T03:43:04;17.67;;;7.63;;
68250;SDS011;55066;51.560;4.642;2023-09-30T03:45:30;15.98;;;7.32;;
68250;SDS011;55066;51.560;4.642;2023-09-30T03:47:58;20.05;;;7.88;;
68250;SDS011;55066;51.560;4.642;2023-09-30T03:50:23;18.52;;;8.02;;
68250;SDS011;55066;51.560;4.642;2023-09-30T03:52:49;18.70;;;8.05;;
68250;SDS011;55066;51.560;4.642;2023-09-30T03:55:15;21.00;;;8.60;;
68250;SDS011;55066;51.560;4.642;2023-09-30T03:57:43;20.10;;;8.05;;
68250;SDS011;55066;51.560;4.642;2023-09-30T04:00:13;21.13;;;8.10;;
68250;SDS011;55066;51.560;4.642;2023-09-30T04:02:43;20.75;;;7.60;;
68250;SDS011;55066;51.560;4.642;2023-09-30T04:05:13;20.20;;;7.43;;
68250;SDS011;55066;51.560;4.642;2023-09-30T04:07:39;15.60;;;7.72;;
68250;SDS011;55066;51.560;4.642;2023-09-30T04:10:07;16.60;;;7.32;;
68250;SDS011;55066;51.560;4.642;2023-09-30T04:12:33;20.08;;;7.53;;
68250;SDS011;55066;51.560;4.642;2023-09-30T04:14:59;18.17;;;7.75;;
68250;SDS011;55066;51.560;4.642;2023-09-30T04:17:25;16.92;;;6.95;;
68250;SDS011;55066;51.560;4.642;2023-09-30T04:19:52;17.75;;;7.53;;
68250;SDS011;55066;51.560;4.642;2023-09-30T04:22:18;19.33;;;7.32;;
68250;SDS011;55066;51.560;4.642;2023-09-30T04:24:47;16.33;;;7.03;;
68250;SDS011;55066;51.560;4.642;2023-09-30T04:27:14;15.68;;;7.07;;
68250;SDS011;55066;51.560;4.642;2023-09-30T04:29:40;13.33;;;6.07;;
68250;SDS011;55066;51.560;4.642;2023-09-30T04:32:06;12.95;;;6.82;;
68250;SDS011;55066;51.560;4.642;2023-09-30T04:34:31;16.83;;;7.63;;
68250;SDS011;55066;51.560;4.642;2023-09-30T04:36:57;16.13;;;7.23;;
68250;SDS011;55066;51.560;4.642;2023-09-30T04:39:22;20.20;;;6.85;;
68250;SDS011;55066;51.560;4.642;2023-09-30T04:41:48;14.90;;;6.32;;
68250;SDS011;55066;51.560;4.642;2023-09-30T04:44:13;14.00;;;6.00;;
68250;SDS011;55066;51.560;4.642;2023-09-30T04:46:39;19.67;;;6.50;;
68250;SDS011;55066;51.560;4.642;2023-09-30T04:49:14;22.27;;;6.38;;
68250;SDS011;55066;51.560;4.642;2023-09-30T04:51:40;14.27;;;6.57;;
68250;SDS011;55066;51.560;4.642;2023-09-30T04:54:05;17.80;;;6.50;;
68250;SDS011;55066;51.560;4.642;2023-09-30T04:56:34;17.73;;;6.60;;
68250;SDS011;55066;51.560;4.642;2023-09-30T04:59:00;16.03;;;6.90;;
68250;SDS011;55066;51.560;4.642;2023-09-30T05:01:27;16.33;;;6.60;;
68250;SDS011;55066;51.560;4.642;2023-09-30T05:03:53;14.95;;;6.32;;
68250;SDS011;55066;51.560;4.642;2023-09-30T05:06:19;13.17;;;6.00;;
68250;SDS011;55066;51.560;4.642;2023-09-30T05:08:44;14.05;;;6.38;;
68250;SDS011;55066;51.560;4.642;2023-09-30T05:11:10;13.73;;;5.73;;
68250;SDS011;55066;51.560;4.642;2023-09-30T05:13:35;16.43;;;6.53;;
68250;SDS011;55066;51.560;4.642;2023-09-30T05:16:01;14.70;;;6.75;;
68250;SDS011;55066;51.560;4.642;2023-09-30T05:18:28;13.05;;;5.15;;
68250;SDS011;55066;51.560;4.642;2023-09-30T05:20:54;16.38;;;6.28;;
68250;SDS011;55066;51.560;4.642;2023-09-30T05:23:20;14.10;;;6.53;;
68250;SDS011;55066;51.560;4.642;2023-09-30T05:25:45;16.08;;;6.93;;
68250;SDS011;55066;51.560;4.642;2023-09-30T05:28:12;18.83;;;7.27;;
68250;SDS011;55066;51.560;4.642;2023-09-30T05:30:39;16.42;;;7.05;;
68250;SDS011;55066;51.560;4.642;2023-09-30T05:33:06;16.77;;;7.30;;
68250;SDS011;55066;51.560;4.642;2023-09-30T05:35:32;18.42;;;7.43;;
68250;SDS011;55066;51.560;4.642;2023-09-30T05:37:57;15.67;;;6.97;;
68250;SDS011;55066;51.560;4.642;2023-09-30T05:40:23;18.00;;;7.60;;
68250;SDS011;55066;51.560;4.642;2023-09-30T05:42:52;21.38;;;7.85;;
68250;SDS011;55066;51.560;4.642;2023-09-30T05:45:18;17.15;;;8.15;;
68250;SDS011;55066;51.560;4.642;2023-09-30T05:47:44;16.20;;;7.80;;
68250;SDS011;55066;51.560;4.642;2023-09-30T05:50:10;17.80;;;7.85;;
68250;SDS011;55066;51.560;4.642;2023-09-30T05:52:41;21.20;;;8.77;;
68250;SDS011;55066;51.560;4.642;2023-09-30T05:55:07;20.30;;;8.38;;
68250;SDS011;55066;51.560;4.642;2023-09-30T05:57:33;20.67;;;7.90;;
68250;SDS011;55066;51.560;4.642;2023-09-30T06:00:00;24.23;;;8.80;;
68250;SDS011;55066;51.560;4.642;2023-09-30T06:02:26;20.60;;;8.57;;
68250;SDS011;55066;51.560;4.642;2023-09-30T06:04:54;19.93;;;9.30;;
68250;SDS011;55066;51.560;4.642;2023-09-30T06:07:22;24.65;;;9.70;;
68250;SDS011;55066;51.560;4.642;2023-09-30T06:09:47;29.77;;;10.85;;
68250;SDS011;55066;51.560;4.642;2023-09-30T06:12:14;30.70;;;11.60;;
68250;SDS011;55066;51.560;4.642;2023-09-30T06:14:40;34.22;;;11.77;;
68250;SDS011;55066;51.560;4.642;2023-09-30T06:17:07;38.00;;;12.77;;
68250;SDS011;55066;51.560;4.642;2023-09-30T06:19:32;47.20;;;12.67;;
68250;SDS011;55066;51.560;4.642;2023-09-30T06:21:58;65.57;;;20.98;;
68250;SDS011;55066;51.560;4.642;2023-09-30T06:24:24;65.43;;;19.70;;
68250;SDS011;55066;51.560;4.642;2023-09-30T06:26:49;49.72;;;14.93;;
68250;SDS011;55066;51.560;4.642;2023-09-30T06:29:16;69.65;;;19.02;;
68250;SDS011;55066;51.560;4.642;2023-09-30T06:31:42;44.70;;;14.60;;
68250;SDS011;55066;51.560;4.642;2023-09-30T06:34:08;47.17;;;13.77;;
68250;SDS011;55066;51.560;4.642;2023-09-30T06:36:36;55.35;;;12.20;;
68250;SDS011;55066;51.560;4.642;2023-09-30T06:39:03;53.30;;;12.77;;
68250;SDS011;55066;51.560;4.642;2023-09-30T06:41:30;52.78;;;13.43;;
68250;SDS011;55066;51.560;4.642;2023-09-30T06:43:56;71.95;;;14.75;;
68250;SDS011;55066;51.560;4.642;2023-09-30T06:46:22;67.95;;;14.48;;
68250;SDS011;55066;51.560;4.642;2023-09-30T06:48:49;55.08;;;13.38;;
68250;SDS011;55066;51.560;4.642;2023-09-30T06:51:17;70.53;;;13.95;;
68250;SDS011;55066;51.560;4.642;2023-09-30T06:53:43;52.00;;;12.68;;
68250;SDS011;55066;51.560;4.642;2023-09-30T06:56:09;50.93;;;12.13;;
68250;SDS011;55066;51.560;4.642;2023-09-30T06:58:34;53.63;;;15.38;;
68250;SDS011;55066;51.560;4.642;2023-09-30T07:01:00;51.97;;;14.03;;
68250;SDS011;55066;51.560;4.642;2023-09-30T07:03:26;69.57;;;14.70;;
68250;SDS011;55066;51.560;4.642;2023-09-30T07:05:51;57.10;;;13.57;;
68250;SDS011;55066;51.560;4.642;2023-09-30T07:08:19;51.22;;;13.60;;
68250;SDS011;55066;51.560;4.642;2023-09-30T07:10:46;47.78;;;13.13;;
68250;SDS011;55066;51.560;4.642;2023-09-30T07:13:15;48.90;;;15.60;;
68250;SDS011;55066;51.560;4.642;2023-09-30T07:15:41;49.47;;;16.05;;
68250;SDS011;55066;51.560;4.642;2023-09-30T07:18:06;54.95;;;15.48;;
68250;SDS011;55066;51.560;4.642;2023-09-30T07:20:32;48.47;;;15.30;;
68250;SDS011;55066;51.560;4.642;2023-09-30T07:22:59;63.00;;;14.80;;
68250;SDS011;55066;51.560;4.642;2023-09-30T07:25:26;51.45;;;14.98;;
68250;SDS011;55066;51.560;4.642;2023-09-30T07:27:51;51.17;;;14.43;;
68250;SDS011;55066;51.560;4.642;2023-09-30T07:30:17;50.57;;;14.73;;
68250;SDS011;55066;51.560;4.642;2023-09-30T07:32:43;47.05;;;14.98;;
68250;SDS011;55066;51.560;4.642;2023-09-30T07:35:09;54.45;;;15.30;;
68250;SDS011;55066;51.560;4.642;2023-09-30T07:37:35;51.45;;;15.98;;
68250;SDS011;55066;51.560;4.642;2023-09-30T07:40:01;52.97;;;15.20;;
68250;SDS011;55066;51.560;4.642;2023-09-30T07:42:26;50.90;;;15.70;;
68250;SDS011;55066;51.560;4.642;2023-09-30T07:44:52;55.27;;;15.80;;
68250;SDS011;55066;51.560;4.642;2023-09-30T07:47:19;57.40;;;18.48;;
68250;SDS011;55066;51.560;4.642;2023-09-30T07:49:44;63.07;;;20.63;;
68250;SDS011;55066;51.560;4.642;2023-09-30T07:52:10;65.10;;;20.48;;
68250;SDS011;55066;51.560;4.642;2023-09-30T07:54:36;58.13;;;18.83;;
68250;SDS011;55066;51.560;4.642;2023-09-30T07:57:02;67.10;;;19.23;;
68250;SDS011;55066;51.560;4.642;2023-09-30T07:59:28;69.43;;;19.17;;
68250;SDS011;55066;51.560;4.642;2023-09-30T08:01:53;64.55;;;20.65;;
68250;SDS011;55066;51.560;4.642;2023-09-30T08:04:19;64.33;;;20.40;;
68250;SDS011;55066;51.560;4.642;2023-09-30T08:06:45;66.80;;;19.48;;
68250;SDS011;55066;51.560;4.642;2023-09-30T08:09:13;68.77;;;20.43;;
68250;SDS011;55066;51.560;4.642;2023-09-30T08:11:39;74.10;;;22.60;;
68250;SDS011;55066;51.560;4.642;2023-09-30T08:14:05;62.40;;;20.35;;
68250;SDS011;55066;51.560;4.642;2023-09-30T08:16:37;67.57;;;20.52;;
68250;SDS011;55066;51.560;4.642;2023-09-30T08:19:03;72.47;;;22.30;;
68250;SDS011;55066;51.560;4.642;2023-09-30T08:21:29;72.25;;;22.55;;
68250;SDS011;55066;51.560;4.642;2023-09-30T08:23:55;76.82;;;21.83;;
68250;SDS011;55066;51.560;4.642;2023-09-30T08:26:22;70.37;;;20.90;;
68250;SDS011;55066;51.560;4.642;2023-09-30T08:28:47;67.22;;;21.23;;
68250;SDS011;55066;51.560;4.642;2023-09-30T08:31:13;67.30;;;20.42;;
68250;SDS011;55066;51.560;4.642;2023-09-30T08:33:39;74.03;;;22.27;;
68250;SDS011;55066;51.560;4.642;2023-09-30T08:36:10;70.20;;;20.90;;
68250;SDS011;55066;51.560;4.642;2023-09-30T08:38:36;69.28;;;21.65;;
68250;SDS011;55066;51.560;4.642;2023-09-30T08:41:03;59.70;;;18.80;;
68250;SDS011;55066;51.560;4.642;2023-09-30T08:43:29;63.42;;;20.45;;
68250;SDS011;55066;51.560;4.642;2023-09-30T08:45:59;54.42;;;19.67;;
68250;SDS011;55066;51.560;4.642;2023-09-30T08:48:28;64.75;;;20.73;;
68250;SDS011;55066;51.560;4.642;2023-09-30T08:50:55;60.80;;;21.23;;
68250;SDS011;55066;51.560;4.642;2023-09-30T08:53:22;61.20;;;21.00;;
68250;SDS011;55066;51.560;4.642;2023-09-30T08:55:50;60.30;;;21.15;;
68250;SDS011;55066;51.560;4.642;2023-09-30T08:58:19;63.00;;;20.85;;
68250;SDS011;55066;51.560;4.642;2023-09-30T09:00:51;59.10;;;19.92;;
68250;SDS011;55066;51.560;4.642;2023-09-30T09:03:18;60.43;;;21.17;;
68250;SDS011;55066;51.560;4.642;2023-09-30T09:05:45;61.00;;;20.33;;
68250;SDS011;55066;51.560;4.642;2023-09-30T09:08:11;65.65;;;21.70;;
68250;SDS011;55066;51.560;4.642;2023-09-30T09:10:46;70.85;;;23.33;;
68250;SDS011;55066;51.560;4.642;2023-09-30T09:13:21;62.77;;;21.40;;
68250;SDS011;55066;51.560;4.642;2023-09-30T09:15:46;61.17;;;21.23;;
68250;SDS011;55066;51.560;4.642;2023-09-30T09:18:11;64.57;;;22.27;;
68250;SDS011;55066;51.560;4.642;2023-09-30T09:20:40;61.33;;;21.52;;
68250;SDS011;55066;51.560;4.642;2023-09-30T09:23:06;67.67;;;22.90;;
68250;SDS011;55066;51.560;4.642;2023-09-30T09:25:38;51.22;;;19.13;;
68250;SDS011;55066;51.560;4.642;2023-09-30T09:28:04;64.60;;;20.88;;
68250;SDS011;55066;51.560;4.642;2023-09-30T09:30:30;65.47;;;22.40;;
68250;SDS011;55066;51.560;4.642;2023-09-30T09:33:02;57.40;;;19.87;;
68250;SDS011;55066;51.560;4.642;2023-09-30T09:35:30;52.55;;;19.67;;
68250;SDS011;55066;51.560;4.642;2023-09-30T09:38:01;54.60;;;19.95;;
68250;SDS011;55066;51.560;4.642;2023-09-30T09:40:28;47.22;;;17.70;;
68250;SDS011;55066;51.560;4.642;2023-09-30T09:42:56;39.15;;;16.20;;
68250;SDS011;55066;51.560;4.642;2023-09-30T09:45:24;41.80;;;15.77;;
68250;SDS011;55066;51.560;4.642;2023-09-30T09:47:53;34.42;;;14.35;;
68250;SDS011;55066;51.560;4.642;2023-09-30T09:50:21;43.45;;;16.45;;
68250;SDS011;55066;51.560;4.642;2023-09-30T09:52:48;40.30;;;14.48;;
68250;SDS011;55066;51.560;4.642;2023-09-30T09:55:19;34.13;;;14.23;;
68250;SDS011;55066;51.560;4.642;2023-09-30T09:57:47;36.10;;;15.00;;
68250;SDS011;55066;51.560;4.642;2023-09-30T10:00:21;42.58;;;13.98;;
68250;SDS011;55066;51.560;4.642;2023-09-30T10:02:50;34.10;;;13.35;;
68250;SDS011;55066;51.560;4.642;2023-09-30T10:05:19;31.75;;;11.57;;
68250;SDS011;55066;51.560;4.642;2023-09-30T10:08:00;27.77;;;12.52;;
68250;SDS011;55066;51.560;4.642;2023-09-30T10:10:29;25.73;;;9.67;;
68250;SDS011;55066;51.560;4.642;2023-09-30T10:13:00;24.60;;;9.57;;
68250;SDS011;55066;51.560;4.642;2023-09-30T10:20:43;20.70;;;6.70;;
68250;SDS011;55066;51.560;4.642;2023-09-30T10:23:23;16.02;;;6.25;;
68250;SDS011;55066;51.560;4.642;2023-09-30T10:25:51;22.05;;;8.43;;
68250;SDS011;55066;51.560;4.642;2023-09-30T10:28:34;21.13;;;8.87;;
68250;SDS011;55066;51.560;4.642;2023-09-30T10:31:10;24.40;;;10.52;;
68250;SDS011;55066;51.560;4.642;2023-09-30T10:36:46;23.55;;;9.63;;
68250;SDS011;55066;51.560;4.642;2023-09-30T10:39:11;22.90;;;7.55;;
68250;SDS011;55066;51.560;4.642;2023-09-30T10:46:57;16.27;;;6.75;;
68250;SDS011;55066;51.560;4.642;2023-09-30T10:49:30;19.73;;;6.63;;
68250;SDS011;55066;51.560;4.642;2023-09-30T10:51:57;14.88;;;6.05;;
68250;SDS011;55066;51.560;4.642;2023-09-30T10:54:29;14.43;;;6.10;;
68250;SDS011;55066;51.560;4.642;2023-09-30T10:56:56;18.02;;;6.85;;
68250;SDS011;55066;51.560;4.642;2023-09-30T10:59:28;23.67;;;6.80;;
68250;SDS011;55066;51.560;4.642;2023-09-30T11:02:00;19.83;;;6.22;;
68250;SDS011;55066;51.560;4.642;2023-09-30T11:04:45;15.95;;;5.18;;
68250;SDS011;55066;51.560;4.642;2023-09-30T11:07:11;20.37;;;8.67;;
68250;SDS011;55066;51.560;4.642;2023-09-30T11:09:36;22.27;;;8.65;;
68250;SDS011;55066;51.560;4.642;2023-09-30T11:12:02;23.40;;;7.73;;
68250;SDS011;55066;51.560;4.642;2023-09-30T11:14:29;15.45;;;4.40;;
68250;SDS011;55066;51.560;4.642;2023-09-30T11:16:58;11.73;;;4.00;;
68250;SDS011;55066;51.560;4.642;2023-09-30T11:19:27;11.67;;;3.63;;
68250;SDS011;55066;51.560;4.642;2023-09-30T11:22:00;13.73;;;3.20;;
68250;SDS011;55066;51.560;4.642;2023-09-30T11:24:25;13.43;;;5.35;;
68250;SDS011;55066;51.560;4.642;2023-09-30T11:26:54;12.70;;;5.23;;
68250;SDS011;55066;51.560;4.642;2023-09-30T11:29:23;11.75;;;4.00;;
68250;SDS011;55066;51.560;4.642;2023-09-30T11:31:49;14.77;;;4.23;;
68250;SDS011;55066;51.560;4.642;2023-09-30T11:34:16;8.43;;;3.08;;
68250;SDS011;55066;51.560;4.642;2023-09-30T11:36:52;8.95;;;2.63;;
68250;SDS011;55066;51.560;4.642;2023-09-30T11:39:25;6.85;;;2.25;;
68250;SDS011;55066;51.560;4.642;2023-09-30T11:41:52;9.40;;;2.47;;
68250;SDS011;55066;51.560;4.642;2023-09-30T11:44:20;8.32;;;2.25;;
68250;SDS011;55066;51.560;4.642;2023-09-30T11:46:54;8.88;;;2.45;;
68250;SDS011;55066;51.560;4.642;2023-09-30T11:49:34;11.80;;;3.65;;
68250;SDS011;55066;51.560;4.642;2023-09-30T11:52:04;11.68;;;3.17;;
68250;SDS011;55066;51.560;4.642;2023-09-30T11:54:42;10.50;;;3.83;;
68250;SDS011;55066;51.560;4.642;2023-09-30T11:57:10;8.23;;;2.67;;
68250;SDS011;55066;51.560;4.642;2023-09-30T11:59:40;6.55;;;2.08;;
68250;SDS011;55066;51.560;4.642;2023-09-30T12:02:06;8.07;;;2.05;;
68250;SDS011;55066;51.560;4.642;2023-09-30T12:04:36;11.55;;;2.35;;
68250;SDS011;55066;51.560;4.642;2023-09-30T12:07:02;7.40;;;2.00;;
68250;SDS011;55066;51.560;4.642;2023-09-30T12:09:28;6.20;;;1.83;;
68250;SDS011;55066;51.560;4.642;2023-09-30T12:11:56;6.13;;;1.55;;
68250;SDS011;55066;51.560;4.642;2023-09-30T12:14:23;9.38;;;1.67;;
68250;SDS011;55066;51.560;4.642;2023-09-30T12:16:49;10.30;;;1.87;;
68250;SDS011;55066;51.560;4.642;2023-09-30T12:19:20;10.60;;;1.73;;
68250;SDS011;55066;51.560;4.642;2023-09-30T12:21:45;12.45;;;3.33;;
68250;SDS011;55066;51.560;4.642;2023-09-30T12:24:16;7.75;;;2.67;;
68250;SDS011;55066;51.560;4.642;2023-09-30T12:26:45;11.85;;;2.95;;
68250;SDS011;55066;51.560;4.642;2023-09-30T12:29:22;10.30;;;2.40;;
68250;SDS011;55066;51.560;4.642;2023-09-30T12:31:50;12.40;;;4.95;;
68250;SDS011;55066;51.560;4.642;2023-09-30T12:34:17;10.15;;;3.50;;
68250;SDS011;55066;51.560;4.642;2023-09-30T12:36:43;12.80;;;4.13;;
68250;SDS011;55066;51.560;4.642;2023-09-30T12:39:10;13.17;;;2.90;;
68250;SDS011;55066;51.560;4.642;2023-09-30T12:41:40;10.20;;;2.90;;
68250;SDS011;55066;51.560;4.642;2023-09-30T12:44:06;11.00;;;3.20;;
68250;SDS011;55066;51.560;4.642;2023-09-30T12:46:32;10.68;;;2.55;;
68250;SDS011;55066;51.560;4.642;2023-09-30T12:49:01;13.50;;;2.80;;
68250;SDS011;55066;51.560;4.642;2023-09-30T12:51:27;9.32;;;2.85;;
68250;SDS011;55066;51.560;4.642;2023-09-30T12:53:53;11.35;;;2.92;;
68250;SDS011;55066;51.560;4.642;2023-09-30T12:56:18;11.87;;;3.30;;
68250;SDS011;55066;51.560;4.642;2023-09-30T12:58:44;8.82;;;2.92;;
68250;SDS011;55066;51.560;4.642;2023-09-30T13:01:10;13.27;;;2.70;;
68250;SDS011;55066;51.560;4.642;2023-09-30T13:03:35;9.67;;;1.97;;
68250;SDS011;55066;51.560;4.642;2023-09-30T13:06:01;9.73;;;2.25;;
68250;SDS011;55066;51.560;4.642;2023-09-30T13:08:27;7.37;;;2.37;;
68250;SDS011;55066;51.560;4.642;2023-09-30T13:10:55;8.63;;;2.42;;
68250;SDS011;55066;51.560;4.642;2023-09-30T13:13:21;12.15;;;2.83;;
68250;SDS011;55066;51.560;4.642;2023-09-30T13:15:47;9.80;;;2.70;;
68250;SDS011;55066;51.560;4.642;2023-09-30T13:18:13;9.27;;;2.42;;
68250;SDS011;55066;51.560;4.642;2023-09-30T13:20:39;7.73;;;2.60;;
68250;SDS011;55066;51.560;4.642;2023-09-30T13:23:04;9.60;;;2.50;;
68250;SDS011;55066;51.560;4.642;2023-09-30T13:25:30;11.03;;;2.80;;
68250;SDS011;55066;51.560;4.642;2023-09-30T13:27:55;12.87;;;2.97;;
68250;SDS011;55066;51.560;4.642;2023-09-30T13:30:21;11.37;;;3.10;;
68250;SDS011;55066;51.560;4.642;2023-09-30T13:32:48;10.32;;;2.30;;
68250;SDS011;55066;51.560;4.642;2023-09-30T13:35:13;11.97;;;2.63;;
68250;SDS011;55066;51.560;4.642;2023-09-30T13:37:40;13.00;;;2.90;;
68250;SDS011;55066;51.560;4.642;2023-09-30T13:40:05;9.40;;;2.67;;
68250;SDS011;55066;51.560;4.642;2023-09-30T13:42:34;12.07;;;2.47;;
68250;SDS011;55066;51.560;4.642;2023-09-30T13:45:00;11.05;;;2.55;;
68250;SDS011;55066;51.560;4.642;2023-09-30T13:47:25;10.10;;;2.53;;
68250;SDS011;55066;51.560;4.642;2023-09-30T13:49:51;9.63;;;2.37;;
68250;SDS011;55066;51.560;4.642;2023-09-30T13:52:17;7.30;;;2.33;;
68250;SDS011;55066;51.560;4.642;2023-09-30T13:54:43;8.67;;;2.30;;
68250;SDS011;55066;51.560;4.642;2023-09-30T13:57:08;17.10;;;6.25;;
68250;SDS011;55066;51.560;4.642;2023-09-30T13:59:35;13.30;;;5.00;;
68250;SDS011;55066;51.560;4.642;2023-09-30T14:02:04;12.35;;;4.20;;
68250;SDS011;55066;51.560;4.642;2023-09-30T14:04:30;9.27;;;3.28;;
68250;SDS011;55066;51.560;4.642;2023-09-30T14:07:02;10.70;;;2.40;;
68250;SDS011;55066;51.560;4.642;2023-09-30T14:09:28;9.13;;;2.37;;
68250;SDS011;55066;51.560;4.642;2023-09-30T14:11:54;8.25;;;2.55;;
68250;SDS011;55066;51.560;4.642;2023-09-30T14:14:20;11.98;;;2.50;;
68250;SDS011;55066;51.560;4.642;2023-09-30T14:16:46;10.90;;;2.67;;
68250;SDS011;55066;51.560;4.642;2023-09-30T14:19:12;8.95;;;2.60;;
68250;SDS011;55066;51.560;4.642;2023-09-30T14:21:39;10.00;;;2.40;;
68250;SDS011;55066;51.560;4.642;2023-09-30T14:24:05;13.30;;;2.70;;
68250;SDS011;55066;51.560;4.642;2023-09-30T14:26:31;10.73;;;2.17;;
68250;SDS011;55066;51.560;4.642;2023-09-30T14:28:57;8.05;;;2.40;;
68250;SDS011;55066;51.560;4.642;2023-09-30T14:31:22;8.10;;;2.43;;
68250;SDS011;55066;51.560;4.642;2023-09-30T14:33:48;9.17;;;2.60;;
68250;SDS011;55066;51.560;4.642;2023-09-30T14:36:13;12.20;;;2.60;;
68250;SDS011;55066;51.560;4.642;2023-09-30T14:38:39;9.73;;;2.75;;
68250;SDS011;55066;51.560;4.642;2023-09-30T14:41:07;9.17;;;2.60;;
68250;SDS011;55066;51.560;4.642;2023-09-30T14:43:34;12.23;;;2.45;;
68250;SDS011;55066;51.560;4.642;2023-09-30T14:46:02;10.83;;;2.50;;